AF1HS Weather Reports


Display with metric or nautical units.
time (UTC)temp
F
wind
direction
speed
MPH
gust
MPH
rain 1hr
in
rain 24hr
in
rain mn
in
humidity
%
barometer
mb
20180119213542 32 262 0.0 0.0 0.00 0.00 0.00 48 1012.9
20180119213046 32 262 0.0 0.0 0.00 0.00 0.00 47 1012.0
20180119212543 32 262 0.0 3.0 0.00 0.00 0.00 47 1012.0
20180119212045 32 229 0.0 3.0 0.00 0.00 0.00 47 1012.5
20180119211542 33 227 0.0 3.0 0.00 0.00 0.00 47 1013.0
20180119211045 33 247 0.0 0.0 0.00 0.00 0.00 47 1013.0
20180119210044 33 247 0.0 0.0 0.00 0.00 0.00 47 1013.0
20180119205543 33 248 0.0 3.0 0.00 0.00 0.00 47 1013.0
20180119205044 34 279 2.0 6.0 0.00 0.00 0.00 47 1013.0
20180119204552 34 294 2.0 6.0 0.00 0.00 0.00 47 1013.0
20180119204333 35 272 3.0 6.0 0.00 0.00 0.00 47 1013.0
20180119203047 35 214 2.0 5.0 0.00 0.00 0.00 47 1012.0
20180119202543 36 273 3.0 6.0 0.00 0.00 0.00 46 1012.0
20180119202048 36 222 1.0 3.0 0.00 0.00 0.00 46 1012.3
20180119201543 36 253 1.0 3.0 0.00 0.00 0.00 46 1013.0
20180119201044 36 220 2.0 6.0 0.00 0.00 0.00 46 1013.0
20180119200042 36 301 2.0 6.0 0.00 0.00 0.00 46 1012.0
20180119195545 36 264 3.0 6.0 0.00 0.00 0.00 46 1012.0
20180119195045 36 261 3.0 6.0 0.00 0.00 0.00 46 1012.0
20180119194543 36 221 3.0 6.0 0.00 0.00 0.00 46 1012.0
20180119194045 36 223 2.0 6.0 0.00 0.00 0.00 46 1012.0
20180119193540 36 253 5.0 9.0 0.00 0.00 0.00 46 1012.0
20180119193046 37 229 3.0 6.0 0.00 0.00 0.00 46 1012.0
20180119192542 37 246 3.0 7.0 0.00 0.00 0.00 46 1012.0
20180119192045 37 267 3.0 6.0 0.00 0.00 0.00 46 1012.0
20180119191541 37 231 3.0 6.0 0.00 0.00 0.00 46 1012.0
20180119191044 37 258 3.0 6.0 0.00 0.00 0.00 46 1012.0
20180119190543 37 258 3.0 6.0 0.00 0.00 0.00 46 1012.0
20180119190043 37 273 2.0 5.0 0.00 0.00 0.00 46 1012.0
20180119185542 37 259 2.0 6.0 0.00 0.00 0.00 46 1012.0
20180119185048 37 247 3.0 7.0 0.00 0.00 0.00 46 1012.0
20180119184547 37 270 3.0 6.0 0.00 0.00 0.00 46 1012.0
20180119184045 36 222 2.0 6.0 0.00 0.00 0.00 46 1012.0
20180119183544 36 273 3.0 6.0 0.00 0.00 0.00 46 1012.2
20180119183044 35 283 3.0 6.0 0.00 0.00 0.00 47 1013.0
20180119182047 35 192 2.0 6.0 0.00 0.00 0.00 47 1013.0
20180119181543 36 250 3.0 5.0 0.00 0.00 0.00 46 1013.0
20180119181045 35 259 2.0 6.0 0.00 0.00 0.00 47 1013.0
20180119180544 34 270 1.0 6.0 0.00 0.00 0.00 47 1013.0
20180119180044 34 282 1.0 6.0 0.00 0.00 0.00 47 1013.0
20180119175044 35 196 3.0 6.0 0.00 0.00 0.00 47 1013.0
20180119174543 33 236 1.0 6.0 0.00 0.00 0.00 47 1013.0
20180119174044 32 219 3.0 8.0 0.00 0.00 0.00 47 1013.0
20180119173046 34 248 5.0 6.0 0.00 0.00 0.00 47 1013.0
20180119172543 35 278 3.0 6.0 0.00 0.00 0.00 47 1013.0
20180119172046 35 275 4.0 6.0 0.00 0.00 0.00 47 1013.4
20180119171543 34 208 3.0 6.0 0.00 0.00 0.00 47 1014.0
20180119171044 33 258 1.0 3.0 0.00 0.00 0.00 47 1014.0
20180119170544 33 248 3.0 8.0 0.00 0.00 0.00 47 1014.0
20180119170124 34 282 2.0 5.0 0.00 0.00 0.00 47 1014.0
20180119164546 33 285 2.0 6.0 0.00 0.00 0.00 47 1014.0
20180119164045 33 268 1.0 3.0 0.00 0.00 0.00 47 1014.0
20180119163542 33 272 2.0 3.0 0.00 0.00 0.00 47 1014.2
20180119162543 35 266 1.0 6.0 0.00 0.00 0.00 47 1015.0
20180119162045 34 264 1.0 6.0 0.00 0.00 0.00 47 1015.0
20180119160543 32 283 0.0 0.0 0.00 0.00 0.00 49 1015.0
20180119160045 31 237 0.0 0.0 0.00 0.00 0.00 49 1015.0
20180119155543 31 195 0.0 0.0 0.00 0.00 0.00 48 1015.0
20180119155045 30 208 0.0 0.0 0.00 0.00 0.00 50 1015.0
20180119154542 30 230 0.0 0.0 0.00 0.00 0.00 48 1015.0
20180119154046 30 233 0.0 0.0 0.00 0.00 0.00 48 1015.0
20180119152543 32 257 0.0 0.0 0.00 0.00 0.00 48 1015.0
20180119152044 33 246 0.0 0.0 0.00 0.00 0.00 48 1015.0
20180119151543 32 241 0.0 0.0 0.00 0.00 0.00 49 1015.0
20180119151046 31 236 0.0 0.0 0.00 0.00 0.00 50 1015.0
20180119150543 31 215 0.0 0.0 0.00 0.00 0.00 50 1015.0
20180119150045 31 272 0.0 0.0 0.00 0.00 0.00 50 1015.0
20180119145543 31 223 0.0 0.0 0.00 0.00 0.00 48 1015.0
20180119144542 32 217 0.0 0.0 0.00 0.00 0.00 50 1015.0
20180119144044 32 258 0.0 0.0 0.00 0.00 0.00 50 1015.0
20180119143544 32 221 0.0 0.0 0.00 0.00 0.00 52 1015.0
20180119143046 31 195 0.0 0.0 0.00 0.00 0.00 50 1015.0
20180119142542 31 235 0.0 0.0 0.00 0.00 0.00 53 1015.0
20180119142044 30 217 0.0 0.0 0.00 0.00 0.00 53 1015.1
20180119141545 29 203 0.0 0.0 0.00 0.00 0.00 55 1016.0
20180119141045 29 252 0.0 0.0 0.00 0.00 0.00 54 1016.0
20180119140543 28 230 0.0 0.0 0.00 0.00 0.00 54 1016.0
20180119135541 27 223 0.0 0.0 0.00 0.00 0.00 56 1016.0
20180119135111 26 193 0.0 0.0 0.00 0.00 0.00 56 1015.8
20180119134539 26 195 0.0 0.0 0.00 0.00 0.00 57 1015.0
20180119134044 25 207 0.0 0.0 0.00 0.00 0.00 61 1015.0
20180119133544 23 214 0.0 0.0 0.00 0.00 0.00 62 1015.0
20180119133046 22 195 0.0 0.0 0.00 0.00 0.00 64 1015.0
20180119132045 20 169 0.0 0.0 0.00 0.00 0.00 69 1015.0
20180119131543 19 175 0.0 0.0 0.00 0.00 0.00 70 1015.0
20180119131046 19 175 0.0 0.0 0.00 0.00 0.00 69 1015.0
20180119130543 18 175 0.0 0.0 0.00 0.00 0.00 69 1015.0
20180119130045 18 175 0.0 0.0 0.00 0.00 0.00 69 1015.0
20180119125045 18 175 0.0 0.0 0.00 0.00 0.00 69 1015.0
20180119124541 18 175 0.0 0.0 0.00 0.00 0.00 69 1015.0
20180119124042 18 177 0.0 0.0 0.00 0.00 0.00 69 1015.0
20180119123047 18 180 0.0 0.0 0.00 0.00 0.00 69 1015.0
20180119122545 17 180 0.0 0.0 0.00 0.00 0.00 69 1015.0
20180119122047 17 185 0.0 0.0 0.00 0.00 0.00 69 1015.0
20180119121542 17 185 0.0 0.0 0.00 0.00 0.00 69 1015.0
20180119121049 17 186 0.0 0.0 0.00 0.00 0.00 69 1015.0
20180119120546 17 186 0.0 0.0 0.00 0.00 0.00 69 1015.0
20180119115543 18 186 0.0 0.0 0.00 0.00 0.00 68 1015.0
20180119114543 19 155 0.0 0.0 0.00 0.00 0.00 68 1015.0
20180119114048 19 155 0.0 0.0 0.00 0.00 0.00 68 1015.0
20180119113042 19 164 0.0 0.0 0.00 0.00 0.00 69 1015.0
20180119112045 19 166 0.0 0.0 0.00 0.00 0.00 69 1015.0
20180119111050 19 184 0.0 0.0 0.00 0.00 0.00 68 1015.0
20180119110544 19 193 0.0 0.0 0.00 0.00 0.00 68 1015.0
20180119110044 18 193 0.0 0.0 0.00 0.00 0.00 68 1015.0
20180119105544 18 193 0.0 0.0 0.00 0.00 0.00 68 1015.0
20180119105047 18 193 0.0 0.0 0.00 0.00 0.00 68 1015.0
20180119104543 18 193 0.0 0.0 0.00 0.00 0.00 68 1015.0
20180119104045 18 195 0.0 0.0 0.00 0.00 0.00 68 1015.0
20180119103545 18 195 0.0 0.0 0.00 0.00 0.00 68 1015.0
20180119103041 18 194 0.0 0.0 0.00 0.00 0.00 68 1015.0
20180119102543 18 208 0.0 0.0 0.00 0.00 0.00 68 1015.0
20180119102041 18 216 0.0 0.0 0.00 0.00 0.00 68 1015.0
20180119101546 19 256 0.0 0.0 0.00 0.00 0.00 68 1015.0
20180119101046 18 256 0.0 0.0 0.00 0.00 0.00 68 1015.0
20180119100543 18 256 0.0 0.0 0.00 0.00 0.00 68 1015.0
20180119100045 18 256 0.0 0.0 0.00 0.00 0.00 68 1015.0
20180119095544 18 256 0.0 0.0 0.00 0.00 0.00 68 1015.0
20180119095145 19 256 0.0 0.0 0.00 0.00 0.00 68 1015.0
20180119094544 19 256 0.0 0.0 0.00 0.00 0.00 68 1015.0
20180119094045 19 256 0.0 0.0 0.00 0.00 0.00 68 1015.0
20180119093543 19 256 0.0 0.0 0.00 0.00 0.00 68 1015.0
20180119093044 19 256 0.0 0.0 0.00 0.00 0.00 68 1015.0
20180119092044 19 273 0.0 0.0 0.00 0.00 0.00 68 1014.6
20180119091047 19 250 0.0 0.0 0.00 0.00 0.00 68 1014.0
20180119090543 19 276 0.0 0.0 0.00 0.00 0.00 67 1014.0
20180119090044 19 251 0.0 0.0 0.00 0.00 0.00 67 1014.0
20180119085045 19 263 0.0 0.0 0.00 0.00 0.00 67 1014.0
20180119084544 19 263 0.0 0.0 0.00 0.00 0.00 67 1014.0
20180119084045 19 263 0.0 0.0 0.00 0.00 0.00 66 1014.0
20180119083544 19 263 0.0 0.0 0.00 0.00 0.00 66 1014.0
20180119083048 19 263 0.0 0.0 0.00 0.00 0.00 66 1014.0
20180119081548 19 263 0.0 0.0 0.00 0.00 0.00 66 1014.0
20180119081045 19 263 0.0 0.0 0.00 0.00 0.00 66 1014.0
20180119080544 19 263 0.0 0.0 0.00 0.00 0.00 66 1014.0
20180119075546 19 263 0.0 0.0 0.00 0.00 0.00 66 1014.0
20180119075144 19 263 0.0 0.0 0.00 0.00 0.00 66 1014.0
20180119074546 19 263 0.0 0.0 0.00 0.00 0.00 65 1014.0
20180119074043 19 263 0.0 0.0 0.00 0.00 0.00 65 1014.0
20180119073047 19 257 0.0 0.0 0.00 0.00 0.00 65 1014.0
20180119072544 19 278 0.0 0.0 0.00 0.00 0.00 65 1014.0
20180119071542 19 278 0.0 0.0 0.00 0.00 0.00 64 1014.0
20180119070546 19 278 0.0 0.0 0.00 0.00 0.00 64 1014.0
20180119070046 20 278 0.0 0.0 0.00 0.00 0.00 63 1014.0
20180119065543 20 278 0.0 0.0 0.00 0.00 0.00 63 1014.0
20180119065045 20 278 0.0 0.0 0.00 0.00 0.00 63 1014.0
20180119064546 20 278 0.0 0.0 0.00 0.00 0.00 63 1014.0
20180119064045 20 278 0.0 0.0 0.00 0.00 0.00 63 1014.0
20180119063046 20 263 0.0 0.0 0.00 0.00 0.00 63 1014.0
20180119062544 20 263 0.0 0.0 0.00 0.00 0.00 63 1014.0
20180119061045 20 263 0.0 0.0 0.00 0.00 0.00 62 1014.0
20180119060542 20 263 0.0 0.0 0.00 0.00 0.00 62 1014.0
20180119055045 21 263 0.0 0.0 0.00 0.00 0.00 62 1014.0
20180119054545 21 268 0.0 0.0 0.00 0.00 0.00 62 1014.0
20180119054045 21 303 0.0 0.0 0.00 0.00 0.00 62 1014.0
20180119053544 21 303 0.0 0.0 0.00 0.00 0.00 62 1014.2
20180119052542 21 289 0.0 0.0 0.00 0.00 0.00 62 1015.0
20180119051518 22 282 0.0 0.0 0.00 0.00 0.00 62 1015.0
20180119051021 22 289 0.0 0.0 0.00 0.00 0.00 62 1015.0
20180119050545 22 272 0.0 0.0 0.00 0.00 0.00 62 1015.0
20180119050046 22 289 0.0 0.0 0.00 0.00 0.00 62 1015.0
20180119045546 22 290 0.0 0.0 0.00 0.00 0.00 62 1015.0
20180119044048 22 273 0.0 0.0 0.00 0.00 0.00 62 1015.0
20180119043045 22 314 0.0 0.0 0.00 0.00 0.00 62 1015.0
20180119042544 22 280 0.0 0.0 0.00 0.00 0.00 62 1015.0
20180119042045 22 299 0.0 0.0 0.00 0.00 0.00 62 1015.0
20180119041046 22 280 0.0 0.0 0.00 0.00 0.00 62 1015.0
20180119040544 22 293 0.0 0.0 0.00 0.00 0.00 62 1015.0
20180119040044 22 268 0.0 0.0 0.00 0.00 0.00 63 1015.0
20180119035545 22 283 0.0 0.0 0.00 0.00 0.00 63 1015.0
20180119035044 22 281 0.0 0.0 0.00 0.00 0.00 63 1015.0
20180119034542 21 298 0.0 0.0 0.00 0.00 0.00 64 1015.0
20180119034044 21 303 0.0 0.0 0.00 0.00 0.00 64 1015.0
20180119033539 21 266 0.0 0.0 0.00 0.00 0.00 63 1015.0
20180119033045 21 239 0.0 0.0 0.00 0.00 0.00 61 1015.0
20180119032541 21 271 0.0 0.0 0.00 0.00 0.00 60 1015.0
20180119032041 21 261 0.0 0.0 0.00 0.00 0.00 61 1015.0
20180119031045 21 262 0.0 0.0 0.00 0.00 0.00 59 1015.0
20180119030542 22 320 0.0 0.0 0.00 0.00 0.00 59 1015.0
20180119030045 22 320 0.0 0.0 0.00 0.00 0.00 59 1015.0
20180119025546 22 320 0.0 0.0 0.00 0.00 0.00 59 1015.0
20180119025043 22 320 0.0 0.0 0.00 0.00 0.00 59 1015.0
20180119024546 22 320 0.0 0.0 0.00 0.00 0.00 59 1015.0
20180119024044 22 320 0.0 0.0 0.00 0.00 0.00 59 1015.0
20180119023543 22 320 0.0 0.0 0.00 0.00 0.00 59 1015.0
20180119023046 22 320 0.0 0.0 0.00 0.00 0.00 59 1015.0
20180119022543 22 320 0.0 0.0 0.00 0.00 0.00 59 1015.0
20180119022048 22 320 0.0 0.0 0.00 0.00 0.00 59 1015.0
20180119021542 22 320 0.0 0.0 0.00 0.00 0.00 59 1015.0
20180119021045 22 325 0.0 0.0 0.00 0.00 0.00 59 1015.0
20180119020544 22 292 0.0 0.0 0.00 0.00 0.00 59 1015.0
20180119020042 22 292 0.0 0.0 0.00 0.00 0.00 59 1015.0
20180119015046 23 270 0.0 0.0 0.00 0.00 0.00 59 1014.9
20180119014541 23 314 0.0 0.0 0.00 0.00 0.00 59 1014.0
20180119014045 23 295 0.0 0.0 0.00 0.00 0.00 58 1014.0
20180119013542 23 305 0.0 0.0 0.00 0.00 0.00 58 1014.0
20180119013045 23 315 0.0 0.0 0.00 0.00 0.00 58 1014.0
20180119012542 23 301 0.0 0.0 0.00 0.00 0.00 58 1014.0
20180119012046 23 349 0.0 0.0 0.00 0.00 0.00 58 1014.0
20180119011048 23 329 0.0 0.0 0.00 0.00 0.00 58 1014.0
20180119010544 23 358 0.0 0.0 0.00 0.00 0.00 58 1014.0
20180119010044 23 300 0.0 0.0 0.00 0.00 0.00 57 1014.0
20180119005543 23 311 0.0 0.0 0.00 0.00 0.00 57 1014.0
20180119005047 24 311 0.0 0.0 0.00 0.00 0.00 57 1014.0
20180119004545 24 311 0.0 0.0 0.00 0.00 0.00 57 1014.0
20180119004046 24 310 0.0 0.0 0.00 0.00 0.00 57 1014.0
20180119003546 24 325 0.0 0.0 0.00 0.00 0.00 57 1014.0
20180119003045 24 336 0.0 0.0 0.00 0.00 0.00 57 1014.0
20180119002044 24 333 0.0 0.0 0.00 0.00 0.00 57 1013.4
20180119001543 24 312 0.0 0.0 0.00 0.00 0.00 57 1013.0
20180119001045 24 310 0.0 0.0 0.00 0.00 0.00 57 1013.0
20180119000545 24 323 0.0 0.0 0.00 0.00 0.00 57 1013.0
20180119000043 24 322 0.0 0.0 0.00 0.00 0.00 57 1013.0
20180118235541 24 298 0.0 0.0 0.00 0.00 0.00 57 1013.0
20180118235044 24 324 0.0 0.0 0.00 0.00 0.00 57 1013.0
20180118234545 24 303 0.0 0.0 0.00 0.00 0.00 57 1013.0
20180118234043 24 301 0.0 0.0 0.00 0.00 0.00 57 1013.0
20180118233542 24 313 0.0 0.0 0.00 0.00 0.00 57 1013.0
20180118232543 24 327 0.0 0.0 0.00 0.00 0.00 57 1013.0
20180118232045 25 322 0.0 0.0 0.00 0.00 0.00 57 1013.0
20180118231542 25 316 0.0 0.0 0.00 0.00 0.00 57 1013.0
20180118231044 25 325 0.0 0.0 0.00 0.00 0.00 57 1013.0
20180118230544 25 306 0.0 0.0 0.00 0.00 0.00 56 1012.6
20180118230043 25 319 0.0 0.0 0.00 0.00 0.00 56 1012.0
20180118225541 25 286 0.0 0.0 0.00 0.00 0.00 56 1012.0
20180118225043 25 310 0.0 0.0 0.00 0.00 0.00 56 1012.0
20180118224544 25 311 0.0 0.0 0.00 0.00 0.00 56 1012.0
20180118224046 25 300 0.0 0.0 0.00 0.00 0.00 56 1012.0
20180118223543 25 312 0.0 0.0 0.00 0.00 0.00 55 1012.0
20180118222544 25 321 0.0 0.0 0.00 0.00 0.00 53 1012.0
20180118222044 26 316 0.0 0.0 0.00 0.00 0.00 53 1012.0
20180118221545 26 318 0.0 0.0 0.00 0.00 0.00 53 1012.0
20180118220545 26 288 0.0 0.0 0.00 0.00 0.00 53 1011.8
20180118215544 26 311 0.0 0.0 0.00 0.00 0.00 51 1011.0
20180118215047 26 325 0.0 0.0 0.00 0.00 0.00 51 1011.0
20180118214545 27 322 0.0 0.0 0.00 0.00 0.00 51 1011.0
20180118214043 27 322 0.0 0.0 0.00 0.00 0.00 50 1011.0